Time;durP1;ratioP1;P1;durP2;ratioP2;P2;SDS_P1;SDS_P2;PMS_P1;PMS_P2;Temp;Humidity;BMP_temperature;BMP_pressure;BME280_temperature;BME280_humidity;BME280_pressure;Samples;Min_cycle;Max_cycle;Signal;HPM_P1;HPM_P2
2022/01/08 00:01:09;;;;;;;11.18;2.42;;;5.60;99.90;;;;;;5034515;28;20072;-72
2022/01/08 00:03:35;;;;;;;9.20;1.80;;;5.60;99.90;;;;;;5034441;28;20057;-71
2022/01/08 00:06:01;;;;;;;12.73;2.33;;;5.60;99.90;;;;;;5034340;28;20034;-70
2022/01/08 00:08:27;;;;;;;10.02;1.90;;;5.60;99.90;;;;;;5034487;28;20490;-71
2022/01/08 00:10:54;;;;;;;10.05;2.30;;;5.70;99.90;;;;;;5033985;28;20025;-73
2022/01/08 00:13:20;;;;;;;11.90;2.05;;;5.70;99.90;;;;;;5033969;28;20130;-72
2022/01/08 00:15:45;;;;;;;7.45;1.60;;;5.80;99.90;;;;;;5032952;28;20025;-72
2022/01/08 00:18:11;;;;;;;11.50;2.17;;;5.80;99.90;;;;;;5034282;28;20075;-72
2022/01/08 00:20:37;;;;;;;9.25;1.83;;;5.80;99.90;;;;;;5034348;28;20032;-73
2022/01/08 00:23:03;;;;;;;8.55;1.92;;;5.80;99.90;;;;;;5033835;28;20071;-71
2022/01/08 00:25:28;;;;;;;12.40;2.10;;;5.90;99.90;;;;;;5034070;28;20112;-73
2022/01/08 00:27:54;;;;;;;10.32;1.67;;;5.90;99.90;;;;;;5033941;28;20101;-73
2022/01/08 00:30:20;;;;;;;6.68;1.70;;;6.00;99.90;;;;;;5033393;28;20080;-72
2022/01/08 00:32:45;;;;;;;6.50;1.70;;;6.00;99.90;;;;;;5033998;28;20064;-71
2022/01/08 00:35:12;;;;;;;7.72;1.63;;;6.00;99.90;;;;;;5033849;28;20041;-71
2022/01/08 00:37:38;;;;;;;7.15;1.60;;;6.00;99.90;;;;;;5033545;28;20076;-72
2022/01/08 00:40:06;;;;;;;8.18;1.50;;;6.10;99.90;;;;;;5033734;28;20022;-72
2022/01/08 00:42:32;;;;;;;10.68;1.65;;;6.00;99.90;;;;;;5032340;28;20467;-72
2022/01/08 00:44:57;;;;;;;9.52;1.75;;;6.10;99.90;;;;;;5033821;28;20040;-71
2022/01/08 00:47:23;;;;;;;10.57;1.52;;;6.10;99.90;;;;;;5034057;28;20037;-71
2022/01/08 00:49:48;;;;;;;10.10;1.88;;;6.10;99.90;;;;;;5033546;28;20095;-73
2022/01/08 00:52:14;;;;;;;10.65;2.10;;;6.00;99.90;;;;;;5033153;28;20037;-72
2022/01/08 00:54:40;;;;;;;8.73;1.58;;;6.00;99.90;;;;;;5033414;28;20029;-71
2022/01/08 00:57:06;;;;;;;10.88;1.65;;;6.00;99.90;;;;;;5033642;28;20021;-73
2022/01/08 00:59:32;;;;;;;8.90;1.30;;;6.00;99.90;;;;;;5033219;28;20136;-72
2022/01/08 01:01:57;;;;;;;8.15;1.70;;;6.00;99.90;;;;;;5033604;28;20483;-74
2022/01/08 01:04:23;;;;;;;8.48;1.50;;;6.10;99.90;;;;;;5033307;28;20029;-73
2022/01/08 01:06:49;;;;;;;9.15;1.77;;;6.10;99.90;;;;;;5033006;28;20048;-72
2022/01/08 01:09:14;;;;;;;9.32;1.58;;;6.10;99.90;;;;;;5033232;28;20383;-71
2022/01/08 01:11:40;;;;;;;6.45;1.05;;;6.10;99.90;;;;;;5033193;28;20065;-73
2022/01/08 01:14:06;;;;;;;5.38;1.92;;;6.10;99.90;;;;;;5032982;28;20057;-74
2022/01/08 01:16:31;;;;;;;10.05;1.75;;;6.10;99.90;;;;;;5033590;28;20025;-74
2022/01/08 01:18:59;;;;;;;11.25;1.67;;;6.20;99.90;;;;;;5033340;28;20030;-73
2022/01/08 01:21:25;;;;;;;8.68;1.58;;;6.20;99.90;;;;;;5032843;28;20018;-74
2022/01/08 01:23:51;;;;;;;7.43;1.88;;;6.30;99.90;;;;;;5032941;28;20052;-72
2022/01/08 01:26:22;;;;;;;11.73;2.55;;;6.30;99.90;;;;;;5032969;28;20047;-73
2022/01/08 01:29:00;;;;;;;8.57;1.33;;;6.30;99.90;;;;;;5033256;28;20036;-74
2022/01/08 01:43:06;;;;;;;5.68;1.45;;;6.40;99.90;;;;;;5032538;28;20076;-69
2022/01/08 01:47:55;;;;;;;3.58;1.17;;;6.20;99.90;;;;;;5032742;28;20040;-71
2022/01/08 01:50:20;;;;;;;11.13;1.95;;;6.00;99.90;;;;;;5032513;28;20029;-71
2022/01/08 01:52:46;;;;;;;4.60;0.90;;;5.90;99.90;;;;;;5031086;28;20498;-71
2022/01/08 01:55:11;;;;;;;7.20;2.00;;;5.70;99.90;;;;;;5032578;28;20022;-71
2022/01/08 01:57:37;;;;;;;5.88;1.40;;;5.70;99.90;;;;;;5032792;28;20061;-72
2022/01/08 02:00:06;;;;;;;6.70;1.60;;;5.60;99.90;;;;;;5032538;28;20037;-72
2022/01/08 02:02:31;;;;;;;7.03;1.27;;;5.50;99.90;;;;;;5032307;28;20040;-72
2022/01/08 02:04:57;;;;;;;10.05;1.55;;;5.40;99.90;;;;;;5032028;28;20052;-73
2022/01/08 02:07:26;;;;;;;4.53;1.10;;;5.40;99.90;;;;;;5032203;28;20036;-71
2022/01/08 02:09:53;;;;;;;14.35;1.92;;;5.30;99.90;;;;;;5030984;28;20522;-72
2022/01/08 02:12:22;;;;;;;10.63;1.90;;;5.30;99.90;;;;;;5035687;28;20060;-73
2022/01/08 02:14:48;;;;;;;10.68;1.60;;;5.30;99.90;;;;;;5035333;28;20128;-72
2022/01/08 02:17:15;;;;;;;11.07;1.83;;;5.30;99.90;;;;;;5035089;28;20032;-72
2022/01/08 02:19:41;;;;;;;7.90;1.70;;;5.30;99.90;;;;;;5033271;28;20026;-73
2022/01/08 02:22:10;;;;;;;6.65;1.58;;;5.30;99.90;;;;;;5034984;28;20467;-71
2022/01/08 02:24:36;;;;;;;6.22;1.65;;;5.30;99.90;;;;;;5034520;28;20029;-72
2022/01/08 02:27:02;;;;;;;7.97;1.40;;;5.30;99.90;;;;;;5034632;28;20049;-69
2022/01/08 02:29:28;;;;;;;12.30;1.60;;;5.30;99.90;;;;;;5034731;28;20056;-69
2022/01/08 02:32:00;;;;;;;8.30;1.60;;;5.30;99.90;;;;;;5034640;28;20517;-69
2022/01/08 02:34:27;;;;;;;13.77;1.90;;;5.30;99.90;;;;;;5034258;28;20348;-69
2022/01/08 02:36:54;;;;;;;4.72;1.02;;;5.30;99.90;;;;;;5034318;28;20414;-71
2022/01/08 02:39:19;;;;;;;4.57;1.58;;;5.40;99.90;;;;;;5034710;28;20037;-72
2022/01/08 02:41:45;;;;;;;8.90;1.30;;;5.40;99.90;;;;;;5034708;28;20026;-72
2022/01/08 02:44:11;;;;;;;3.95;1.05;;;5.30;99.90;;;;;;5033185;28;20116;-72
2022/01/08 02:46:39;;;;;;;3.17;0.77;;;5.20;99.90;;;;;;5032937;28;20037;-73
2022/01/08 02:49:06;;;;;;;6.13;2.10;;;5.10;99.90;;;;;;5034368;28;20028;-72
2022/01/08 02:51:34;;;;;;;5.82;1.38;;;5.00;99.90;;;;;;5034712;28;20036;-72
2022/01/08 02:54:00;;;;;;;6.57;1.33;;;5.00;99.90;;;;;;5032948;28;20119;-72
2022/01/08 02:56:25;;;;;;;5.68;1.60;;;4.90;99.90;;;;;;5032736;28;20064;-72
2022/01/08 02:58:51;;;;;;;8.73;1.88;;;4.90;99.90;;;;;;5032897;28;20022;-71
2022/01/08 03:01:16;;;;;;;9.88;1.55;;;4.80;99.90;;;;;;5033833;28;20126;-72
2022/01/08 03:03:42;;;;;;;5.93;1.48;;;4.80;99.90;;;;;;5034370;28;20560;-72
2022/01/08 03:06:08;;;;;;;5.68;1.55;;;4.80;99.90;;;;;;5032371;28;20036;-70
2022/01/08 03:08:33;;;;;;;12.43;1.70;;;4.80;99.90;;;;;;5033899;28;20029;-70
2022/01/08 03:10:59;;;;;;;7.05;1.55;;;4.80;99.90;;;;;;5034059;28;20033;-71
2022/01/08 03:13:24;;;;;;;10.20;1.97;;;4.80;99.90;;;;;;4995832;28;1098170;-69
2022/01/08 03:15:50;;;;;;;6.80;1.75;;;4.80;99.90;;;;;;5035323;28;20033;-70
2022/01/08 03:18:16;;;;;;;8.35;1.60;;;4.90;99.90;;;;;;5033690;28;20461;-70
2022/01/08 03:20:49;;;;;;;4.75;1.35;;;4.90;99.90;;;;;;5033753;28;20026;-70
2022/01/08 03:23:17;;;;;;;5.57;1.25;;;5.00;99.90;;;;;;5034889;28;20459;-70
2022/01/08 03:25:44;;;;;;;5.47;1.27;;;5.00;99.90;;;;;;5034995;28;20025;-70
2022/01/08 03:28:11;;;;;;;4.60;1.10;;;5.00;99.90;;;;;;5034918;28;20462;-72
2022/01/08 03:30:36;;;;;;;9.15;2.33;;;5.10;99.90;;;;;;5034819;28;20032;-72
2022/01/08 03:33:02;;;;;;;5.50;1.60;;;5.10;99.90;;;;;;5034661;28;20037;-72
2022/01/08 03:35:28;;;;;;;11.30;1.73;;;5.10;99.90;;;;;;5034904;28;20018;-72
2022/01/08 03:37:53;;;;;;;8.55;1.60;;;5.10;99.90;;;;;;5034759;28;20037;-72
2022/01/08 03:40:19;;;;;;;8.70;1.75;;;5.10;99.90;;;;;;5034713;28;20045;-72
2022/01/08 03:42:45;;;;;;;6.43;1.52;;;5.10;99.90;;;;;;5034797;28;20108;-72
2022/01/08 03:45:11;;;;;;;12.65;3.25;;;5.00;99.90;;;;;;5034043;28;20040;-72
2022/01/08 03:48:17;;;;;;;5.90;1.10;;;4.90;99.90;;;;;;5034584;28;20125;-72
2022/01/08 03:50:25;;;;;;;6.63;1.45;;;4.80;99.90;;;;;;5033871;28;20092;-71
2022/01/08 03:52:51;;;;;;;5.20;1.35;;;4.70;99.90;;;;;;5034526;28;20037;-70
2022/01/08 03:55:16;;;;;;;6.50;1.48;;;4.70;99.90;;;;;;5034523;28;20026;-70
2022/01/08 03:57:42;;;;;;;7.40;1.23;;;4.60;99.90;;;;;;5032780;28;20026;-70
2022/01/08 04:00:08;;;;;;;4.45;1.40;;;4.50;99.90;;;;;;5034431;28;20583;-69
2022/01/08 04:02:34;;;;;;;5.72;1.38;;;4.50;99.90;;;;;;5034177;28;20030;-69
2022/01/08 04:04:59;;;;;;;8.35;1.30;;;4.40;99.90;;;;;;5034133;28;20044;-71
2022/01/08 04:07:25;;;;;;;5.75;1.45;;;4.40;99.90;;;;;;5034138;28;20452;-70
2022/01/08 04:09:50;;;;;;;7.55;1.50;;;4.40;99.90;;;;;;5034203;28;20022;-69
2022/01/08 04:12:23;;;;;;;7.97;1.52;;;4.30;99.90;;;;;;5034448;28;20041;-70
2022/01/08 04:15:03;;;;;;;6.43;1.60;;;4.30;99.90;;;;;;5034013;28;20056;-71
2022/01/08 04:17:28;;;;;;;10.40;1.58;;;4.20;99.90;;;;;;5034197;28;20463;-70
2022/01/08 04:19:54;;;;;;;7.80;1.55;;;4.20;99.90;;;;;;5033978;28;20040;-70
2022/01/08 04:22:20;;;;;;;4.47;1.70;;;4.20;99.90;;;;;;5033839;28;20447;-70
2022/01/08 04:24:45;;;;;;;8.63;1.70;;;4.10;99.90;;;;;;5034069;28;20434;-70
2022/01/08 04:27:11;;;;;;;7.13;1.70;;;4.10;99.90;;;;;;5033715;28;20028;-71
2022/01/08 04:29:36;;;;;;;7.97;1.70;;;4.10;99.90;;;;;;5033632;28;20022;-70
2022/01/08 04:32:02;;;;;;;8.02;1.42;;;4.10;99.90;;;;;;5033362;28;20026;-71
2022/01/08 04:34:28;;;;;;;6.75;1.60;;;4.20;99.90;;;;;;5032722;28;20091;-70
2022/01/08 04:36:53;;;;;;;6.78;1.80;;;4.20;99.90;;;;;;5032338;28;20022;-69
2022/01/08 04:39:19;;;;;;;6.40;1.48;;;4.20;99.90;;;;;;5033533;28;20387;-71
2022/01/08 04:41:45;;;;;;;8.45;2.13;;;4.10;99.90;;;;;;5033381;28;20086;-71
2022/01/08 04:44:11;;;;;;;9.00;2.17;;;4.10;99.90;;;;;;5032102;28;20026;-70
2022/01/08 04:46:38;;;;;;;5.90;1.45;;;4.10;99.90;;;;;;5032211;28;20033;-70
2022/01/08 04:49:05;;;;;;;11.05;1.88;;;4.00;99.90;;;;;;5033714;28;20040;-70
2022/01/08 04:51:31;;;;;;;9.23;2.55;;;4.00;99.90;;;;;;5032014;28;20379;-69
2022/01/08 04:53:56;;;;;;;6.82;1.83;;;4.00;99.90;;;;;;5033527;28;20056;-70
2022/01/08 04:56:22;;;;;;;9.68;2.08;;;4.00;99.90;;;;;;5033011;28;20022;-70
2022/01/08 04:58:48;;;;;;;7.40;2.70;;;4.00;99.90;;;;;;5033404;28;20029;-71
2022/01/08 05:01:15;;;;;;;10.80;2.95;;;4.00;99.90;;;;;;5033341;28;20403;-71
2022/01/08 05:03:40;;;;;;;18.95;2.42;;;4.00;99.90;;;;;;5033096;28;20044;-71
2022/01/08 05:06:06;;;;;;;12.43;2.30;;;4.10;99.90;;;;;;5032803;28;20025;-70
2022/01/08 05:08:32;;;;;;;12.93;2.28;;;4.10;99.90;;;;;;5033139;28;20064;-71
2022/01/08 05:10:57;;;;;;;12.07;2.17;;;4.20;99.90;;;;;;5032862;28;20444;-69
2022/01/08 05:13:23;;;;;;;14.45;2.50;;;4.30;99.90;;;;;;5032706;28;20038;-70
2022/01/08 05:15:48;;;;;;;9.80;2.10;;;4.40;99.90;;;;;;5031519;28;20057;-70
2022/01/08 05:18:14;;;;;;;10.85;2.53;;;4.40;99.90;;;;;;5033032;28;20029;-70
2022/01/08 05:20:41;;;;;;;10.73;2.40;;;4.40;99.90;;;;;;5032441;28;20443;-70
2022/01/08 05:23:08;;;;;;;9.45;2.65;;;4.50;99.90;;;;;;5032487;28;20108;-71
2022/01/08 05:25:34;;;;;;;15.80;2.63;;;4.50;99.90;;;;;;5031168;28;20027;-70
2022/01/08 05:28:00;;;;;;;13.13;2.13;;;4.50;99.90;;;;;;5031483;28;20467;-70
2022/01/08 05:30:27;;;;;;;6.35;1.70;;;4.50;99.90;;;;;;5032991;28;20575;-69
2022/01/08 05:32:53;;;;;;;6.25;2.03;;;4.50;99.90;;;;;;5032776;28;20033;-70
2022/01/08 05:35:20;;;;;;;9.70;2.50;;;4.40;99.90;;;;;;5032474;28;20104;-71
2022/01/08 05:37:46;;;;;;;5.85;1.92;;;4.40;99.90;;;;;;5032491;28;20037;-70
2022/01/08 05:40:12;;;;;;;9.32;2.05;;;4.40;99.90;;;;;;5032567;28;20082;-71
2022/01/08 05:42:38;;;;;;;14.77;2.50;;;4.40;99.90;;;;;;5032275;28;20025;-70
2022/01/08 05:45:04;;;;;;;8.60;2.00;;;4.40;99.90;;;;;;5032369;28;20491;-69
2022/01/08 05:47:32;;;;;;;10.32;2.92;;;4.50;99.90;;;;;;5030933;28;20105;-70
2022/01/08 05:49:58;;;;;;;10.85;2.20;;;4.50;99.90;;;;;;5032462;28;20516;-70
2022/01/08 05:52:24;;;;;;;7.43;2.13;;;4.50;99.90;;;;;;5031148;28;20037;-70
2022/01/08 05:54:50;;;;;;;9.85;1.90;;;4.50;99.90;;;;;;5032196;28;20029;-71
2022/01/08 05:57:16;;;;;;;8.60;1.90;;;4.60;99.90;;;;;;5032743;28;20454;-70
2022/01/08 05:59:41;;;;;;;9.82;2.03;;;4.60;99.90;;;;;;5032583;28;20470;-70
2022/01/08 06:02:09;;;;;;;4.40;1.58;;;4.70;99.90;;;;;;5032957;28;20029;-71
2022/01/08 06:04:35;;;;;;;7.95;2.30;;;4.70;99.90;;;;;;5030823;28;20368;-71
2022/01/08 06:07:00;;;;;;;6.72;1.92;;;4.80;99.90;;;;;;5032485;28;20088;-71
2022/01/08 06:09:26;;;;;;;10.75;1.65;;;4.80;99.90;;;;;;5032584;28;20034;-71
2022/01/08 06:11:52;;;;;;;10.13;2.40;;;4.80;99.90;;;;;;5031084;28;20387;-70
2022/01/08 06:14:17;;;;;;;9.30;1.80;;;4.80;99.90;;;;;;5032057;28;20089;-71
2022/01/08 06:16:43;;;;;;;10.55;2.08;;;4.90;99.90;;;;;;5032471;28;20036;-71
2022/01/08 06:19:11;;;;;;;7.00;2.03;;;4.90;99.90;;;;;;5032231;28;20041;-70
2022/01/08 06:21:36;;;;;;;9.52;2.15;;;4.90;99.90;;;;;;5032128;28;20030;-71
2022/01/08 06:24:04;;;;;;;8.90;2.47;;;4.90;99.90;;;;;;5014638;28;20033;-71
2022/01/08 06:26:29;;;;;;;15.20;2.53;;;4.90;99.90;;;;;;5031539;28;20040;-71
2022/01/08 06:28:55;;;;;;;4.38;1.60;;;4.90;99.90;;;;;;5032194;28;20022;-71
2022/01/08 06:31:22;;;;;;;11.13;2.83;;;4.90;99.90;;;;;;5032348;28;20053;-71
2022/01/08 06:33:49;;;;;;;9.93;2.38;;;4.90;99.90;;;;;;5031989;28;20078;-72
2022/01/08 06:36:17;;;;;;;9.07;2.03;;;4.90;99.90;;;;;;5031945;28;20030;-72
2022/01/08 06:38:43;;;;;;;7.85;2.17;;;4.80;99.90;;;;;;5030796;28;20025;-71
2022/01/08 06:41:09;;;;;;;9.05;1.75;;;4.80;99.90;;;;;;5032437;28;20048;-71
2022/01/08 06:43:35;;;;;;;5.07;1.48;;;4.80;99.90;;;;;;5032070;28;20032;-70
2022/01/08 06:46:01;;;;;;;11.25;2.97;;;4.80;99.90;;;;;;5030460;28;20021;-71
2022/01/08 06:48:26;;;;;;;10.57;1.67;;;4.80;99.90;;;;;;5031441;28;20030;-72
2022/01/08 06:50:52;;;;;;;7.55;2.30;;;4.80;99.90;;;;;;5031937;28;20088;-72
2022/01/08 06:53:18;;;;;;;6.20;1.88;;;4.80;99.90;;;;;;5031710;28;20048;-72
2022/01/08 06:55:44;;;;;;;8.88;2.50;;;4.80;99.90;;;;;;5031636;28;20029;-71
2022/01/08 06:58:09;;;;;;;9.70;2.10;;;4.80;99.90;;;;;;5035127;28;20039;-72
2022/01/08 07:00:35;;;;;;;10.10;1.98;;;4.80;99.90;;;;;;5035738;28;20021;-71
2022/01/08 07:03:01;;;;;;;11.20;2.10;;;4.80;99.90;;;;;;5035561;28;20459;-71
2022/01/08 07:05:27;;;;;;;12.63;2.03;;;4.80;99.90;;;;;;5034154;28;20040;-71
2022/01/08 07:07:52;;;;;;;9.85;3.10;;;4.80;99.90;;;;;;5035551;28;20072;-72
2022/01/08 07:10:18;;;;;;;9.80;2.08;;;4.80;99.90;;;;;;5035634;28;20374;-72
2022/01/08 07:12:43;;;;;;;9.00;2.00;;;4.70;99.90;;;;;;5035543;28;20100;-71
2022/01/08 07:15:10;;;;;;;6.45;1.95;;;4.80;99.90;;;;;;5033482;28;20049;-71
2022/01/08 07:17:35;;;;;;;8.88;1.95;;;4.80;99.90;;;;;;5034993;28;20026;-72
2022/01/08 07:20:01;;;;;;;5.38;1.58;;;4.80;99.90;;;;;;5035249;28;20030;-71
2022/01/08 07:22:28;;;;;;;7.75;2.03;;;4.80;99.90;;;;;;5035163;28;20364;-71
2022/01/08 07:24:53;;;;;;;10.60;1.60;;;4.80;99.90;;;;;;5035228;28;20025;-71
2022/01/08 07:27:19;;;;;;;8.75;1.42;;;4.90;99.90;;;;;;5035040;28;20479;-72
2022/01/08 07:29:45;;;;;;;4.57;1.30;;;4.90;99.90;;;;;;5034970;28;20037;-71
2022/01/08 07:32:10;;;;;;;6.10;1.80;;;4.90;99.90;;;;;;5034166;28;20030;-72
2022/01/08 07:34:36;;;;;;;8.90;1.83;;;5.00;99.90;;;;;;5034720;28;20103;-72
2022/01/08 07:37:02;;;;;;;6.55;1.58;;;5.00;99.90;;;;;;5034638;28;20032;-72
2022/01/08 07:39:27;;;;;;;8.38;1.80;;;5.00;99.90;;;;;;5034807;28;20455;-72
2022/01/08 07:41:53;;;;;;;7.25;1.70;;;5.10;99.90;;;;;;5035173;28;20074;-72
2022/01/08 07:44:18;;;;;;;5.55;1.63;;;5.10;99.90;;;;;;5034865;28;20033;-72
2022/01/08 07:46:44;;;;;;;8.82;1.85;;;5.20;99.90;;;;;;5034607;28;20439;-71
2022/01/08 07:49:10;;;;;;;14.70;2.13;;;5.20;99.90;;;;;;5034447;28;20029;-72
2022/01/08 07:51:35;;;;;;;10.88;1.88;;;5.30;99.90;;;;;;5034642;28;20096;-71
2022/01/08 07:54:01;;;;;;;4.22;1.77;;;5.30;99.90;;;;;;5034483;28;20042;-72
2022/01/08 07:56:26;;;;;;;11.95;1.58;;;5.40;99.90;;;;;;5034123;28;20026;-71
2022/01/08 07:58:52;;;;;;;8.27;2.17;;;5.40;99.90;;;;;;5033047;28;20056;-71
2022/01/08 08:01:18;;;;;;;7.05;1.77;;;5.40;99.90;;;;;;5034080;28;20037;-71
2022/01/08 08:03:43;;;;;;;6.25;1.33;;;5.40;99.90;;;;;;5034329;28;20029;-72
2022/01/08 08:06:10;;;;;;;8.80;2.10;;;5.40;99.90;;;;;;5034396;28;20601;-72
2022/01/08 08:08:36;;;;;;;6.90;1.40;;;5.30;99.90;;;;;;5033131;28;20021;-71
2022/01/08 08:11:01;;;;;;;7.80;2.20;;;5.20;99.90;;;;;;5034757;28;20095;-71
2022/01/08 08:13:27;;;;;;;7.50;1.98;;;5.20;99.90;;;;;;5033716;28;20037;-72
2022/01/08 08:15:53;;;;;;;4.43;2.20;;;5.10;99.90;;;;;;5030062;28;20033;-71
2022/01/08 08:18:18;;;;;;;8.80;2.30;;;5.00;99.90;;;;;;5032797;28;20033;-71
2022/01/08 08:20:44;;;;;;;8.40;1.88;;;4.90;99.90;;;;;;5033316;28;20021;-72
2022/01/08 08:23:10;;;;;;;6.85;2.08;;;4.90;99.90;;;;;;5033264;28;20109;-72
2022/01/08 08:25:35;;;;;;;7.78;1.90;;;4.70;99.90;;;;;;5033594;28;20348;-72
2022/01/08 08:28:04;;;;;;;1.77;1.17;;;4.70;99.90;;;;;;5033922;28;20308;-72
2022/01/08 08:30:29;;;;;;;11.13;2.30;;;4.60;99.90;;;;;;5033793;28;20056;-72
2022/01/08 08:32:55;;;;;;;4.30;2.13;;;4.60;99.90;;;;;;5033324;28;20184;-72
2022/01/08 08:35:20;;;;;;;8.35;2.50;;;4.60;99.90;;;;;;5033867;28;20068;-72
2022/01/08 08:37:48;;;;;;;12.98;2.88;;;4.60;99.90;;;;;;5033909;28;20022;-72
2022/01/08 08:40:14;;;;;;;6.63;2.35;;;4.60;99.90;;;;;;5033197;28;20099;-71
2022/01/08 08:42:41;;;;;;;9.30;3.30;;;4.60;99.90;;;;;;5033679;28;20418;-72
2022/01/08 08:45:08;;;;;;;6.13;2.20;;;4.60;99.90;;;;;;5033127;28;20068;-71
2022/01/08 08:47:33;;;;;;;8.75;2.40;;;4.70;99.90;;;;;;5033566;28;20021;-71
2022/01/08 08:49:59;;;;;;;11.50;2.90;;;4.70;99.90;;;;;;5033276;28;20026;-73
2022/01/08 08:52:25;;;;;;;13.15;3.08;;;4.80;99.90;;;;;;5031890;28;20048;-73
2022/01/08 08:54:52;;;;;;;11.23;4.40;;;4.80;99.90;;;;;;5032866;28;20067;-73
2022/01/08 08:57:17;;;;;;;4.00;2.10;;;4.90;99.90;;;;;;5032438;28;20033;-71
2022/01/08 08:59:43;;;;;;;6.40;3.05;;;4.90;99.90;;;;;;5032830;28;20026;-73
2022/01/08 09:02:09;;;;;;;8.43;2.22;;;5.00;99.90;;;;;;5033035;28;20029;-72
2022/01/08 09:04:36;;;;;;;7.93;2.03;;;5.00;99.90;;;;;;5033224;28;20057;-72
2022/01/08 09:07:03;;;;;;;3.80;2.13;;;4.90;99.90;;;;;;5031968;28;20029;-72
2022/01/08 09:09:28;;;;;;;3.42;1.85;;;4.90;99.90;;;;;;5031735;28;20120;-72
2022/01/08 09:11:54;;;;;;;4.10;1.73;;;4.90;99.90;;;;;;5018633;28;20105;-72
2022/01/08 09:14:20;;;;;;;9.23;2.65;;;4.90;99.90;;;;;;5013561;28;20134;-72
2022/01/08 09:16:55;;;;;;;7.85;2.88;;;4.80;99.90;;;;;;5027688;28;20037;-72
2022/01/08 09:19:22;;;;;;;7.95;2.20;;;4.80;99.90;;;;;;5012382;28;20428;-73
2022/01/08 09:21:49;;;;;;;10.38;2.53;;;4.80;99.90;;;;;;5019186;28;20030;-72
2022/01/08 09:24:15;;;;;;;7.60;2.70;;;4.80;99.90;;;;;;5013036;28;20026;-72
2022/01/08 09:26:41;;;;;;;7.22;2.22;;;4.80;99.90;;;;;;5011984;28;20029;-72
2022/01/08 09:29:07;;;;;;;10.93;2.60;;;4.80;99.90;;;;;;5010767;28;20109;-72
2022/01/08 09:31:33;;;;;;;7.57;2.05;;;4.80;99.90;;;;;;5027831;28;20055;-72
2022/01/08 09:33:59;;;;;;;4.57;2.10;;;4.80;99.90;;;;;;5017083;28;20038;-73
2022/01/08 09:36:25;;;;;;;10.20;2.33;;;4.90;99.90;;;;;;5028873;28;20025;-73
2022/01/08 09:38:51;;;;;;;19.27;3.20;;;4.80;99.90;;;;;;5012784;28;20156;-73
2022/01/08 09:41:17;;;;;;;8.85;2.33;;;4.90;99.90;;;;;;5012666;28;20124;-73
2022/01/08 09:43:42;;;;;;;7.53;2.78;;;4.90;99.90;;;;;;5012875;28;20482;-74
2022/01/08 09:46:08;;;;;;;6.63;2.20;;;4.90;99.90;;;;;;5011381;28;20384;-72
2022/01/08 09:48:34;;;;;;;5.43;2.67;;;4.90;99.90;;;;;;5012317;28;20022;-73
2022/01/08 09:51:00;;;;;;;9.35;2.45;;;4.90;99.90;;;;;;5029206;28;20442;-74
2022/01/08 09:53:26;;;;;;;7.88;2.38;;;4.90;99.90;;;;;;5012162;28;20034;-72
2022/01/08 09:55:52;;;;;;;11.32;3.40;;;4.90;99.90;;;;;;5020191;28;20100;-74
2022/01/08 09:58:17;;;;;;;9.13;2.78;;;4.90;99.90;;;;;;5012725;28;20109;-73
2022/01/08 10:00:46;;;;;;;5.70;2.85;;;4.90;99.90;;;;;;5025494;28;20083;-73
2022/01/08 10:03:22;;;;;;;6.30;2.83;;;4.90;99.90;;;;;;5013987;28;20026;-74
2022/01/08 10:05:51;;;;;;;11.75;3.60;;;4.90;99.90;;;;;;5020472;28;20029;-73
2022/01/08 10:08:26;;;;;;;8.82;3.58;;;4.90;99.90;;;;;;5012547;28;20415;-73
2022/01/08 10:11:03;;;;;;;7.95;3.28;;;4.90;99.90;;;;;;5027419;28;20533;-74
2022/01/08 10:13:42;;;;;;;15.85;4.43;;;4.90;99.90;;;;;;5012025;28;20034;-73
2022/01/08 10:19:02;;;;;;;11.90;4.10;;;4.90;99.90;;;;;;5011679;28;20057;-74
2022/01/08 10:21:32;;;;;;;9.88;4.57;;;4.90;99.90;;;;;;5026582;28;20025;-73
2022/01/08 10:24:04;;;;;;;14.60;4.95;;;5.00;99.90;;;;;;5010875;28;20029;-73
2022/01/08 10:26:40;;;;;;;12.85;4.43;;;4.90;99.90;;;;;;5030153;28;20037;-74
2022/01/08 10:29:11;;;;;;;12.93;5.63;;;4.90;99.90;;;;;;5011762;28;20033;-74
2022/01/08 10:31:39;;;;;;;15.90;6.70;;;5.00;99.90;;;;;;5019078;28;20030;-74
2022/01/08 10:34:10;;;;;;;14.10;5.93;;;5.00;99.90;;;;;;5036089;28;20042;-73
2022/01/08 10:36:48;;;;;;;10.50;4.70;;;5.10;99.90;;;;;;5034780;28;20079;-74
2022/01/08 10:39:24;;;;;;;10.55;5.18;;;5.10;99.90;;;;;;5035959;28;20391;-73
2022/01/08 10:41:52;;;;;;;14.35;4.60;;;5.20;99.90;;;;;;5035325;28;20068;-73
2022/01/08 10:44:23;;;;;;;13.77;5.65;;;5.20;99.90;;;;;;5034228;28;20387;-73
2022/01/08 10:46:52;;;;;;;19.13;7.07;;;5.20;99.90;;;;;;5034844;28;20029;-74
2022/01/08 10:49:28;;;;;;;14.98;5.75;;;5.30;99.90;;;;;;5033364;28;20139;-72
2022/01/08 10:51:56;;;;;;;13.80;5.47;;;5.40;99.90;;;;;;5034866;28;20387;-72
2022/01/08 10:54:29;;;;;;;13.25;6.18;;;5.50;99.90;;;;;;5034371;28;20033;-74
2022/01/08 10:56:56;;;;;;;10.38;5.18;;;5.50;99.90;;;;;;5034712;28;20034;-75
2022/01/08 10:59:24;;;;;;;14.60;6.18;;;5.60;99.90;;;;;;5035119;28;20084;-73
2022/01/08 11:02:05;;;;;;;8.50;4.57;;;5.70;99.90;;;;;;5035551;28;20052;-73
2022/01/08 11:04:50;;;;;;;13.48;6.53;;;5.80;99.90;;;;;;5035359;28;20116;-73
2022/01/08 11:07:30;;;;;;;11.63;5.78;;;5.90;99.90;;;;;;5035554;28;20037;-74
2022/01/08 11:10:07;;;;;;;9.23;4.25;;;5.90;99.90;;;;;;5035180;28;20127;-73
2022/01/08 11:12:40;;;;;;;18.77;7.05;;;5.90;99.90;;;;;;5034713;28;20022;-74
2022/01/08 11:17:50;;;;;;;13.93;6.03;;;6.00;99.90;;;;;;5035347;28;20026;-72
2022/01/08 11:20:28;;;;;;;14.40;6.53;;;5.90;99.90;;;;;;5031753;28;20022;-72
2022/01/08 11:23:02;;;;;;;11.20;5.22;;;5.90;99.90;;;;;;5035123;28;20105;-73
2022/01/08 11:25:32;;;;;;;9.35;4.35;;;5.90;99.90;;;;;;5034896;28;20577;-74
2022/01/08 11:28:09;;;;;;;14.15;5.72;;;5.90;99.90;;;;;;5035910;28;20486;-74
2022/01/08 11:30:38;;;;;;;13.57;4.72;;;5.80;99.90;;;;;;5033823;28;20116;-74
2022/01/08 11:33:17;;;;;;;11.38;4.82;;;5.80;99.90;;;;;;5035184;28;20036;-74
2022/01/08 11:35:44;;;;;;;8.35;4.13;;;5.80;99.90;;;;;;5034985;28;20033;-73
2022/01/08 11:38:12;;;;;;;10.50;4.13;;;5.80;99.90;;;;;;5034642;28;20018;-76
2022/01/08 11:40:44;;;;;;;12.98;4.63;;;5.70;99.90;;;;;;5034179;28;20379;-73
2022/01/08 11:43:12;;;;;;;12.02;4.90;;;5.60;99.90;;;;;;5034032;28;20025;-74
2022/01/08 11:45:47;;;;;;;10.95;4.38;;;5.60;99.90;;;;;;5034273;28;20037;-74
2022/01/08 11:48:14;;;;;;;12.73;5.18;;;5.60;99.90;;;;;;5033111;28;20171;-75
2022/01/08 11:50:48;;;;;;;5.18;3.28;;;5.60;99.90;;;;;;5032896;28;20418;-74
2022/01/08 11:53:21;;;;;;;14.70;4.57;;;5.60;99.90;;;;;;5032814;28;20113;-74
2022/01/08 11:55:53;;;;;;;12.68;4.32;;;5.60;99.90;;;;;;5014527;28;20030;-73
2022/01/08 11:58:23;;;;;;;13.50;5.40;;;5.60;99.90;;;;;;5029001;28;20033;-73
2022/01/08 12:00:56;;;;;;;14.98;4.97;;;5.60;99.90;;;;;;5015510;28;20264;-73
2022/01/08 12:03:30;;;;;;;13.85;3.90;;;5.60;99.90;;;;;;5022371;28;20034;-74
2022/01/08 12:05:56;;;;;;;14.18;4.50;;;5.60;99.90;;;;;;5014444;28;20053;-74
2022/01/08 12:08:51;;;;;;;11.35;4.72;;;5.70;99.90;;;;;;5027021;28;20544;-73
2022/01/08 12:11:17;;;;;;;16.10;5.05;;;5.70;99.90;;;;;;5012797;28;20044;-73
2022/01/08 12:13:44;;;;;;;14.15;4.82;;;5.70;99.90;;;;;;5021686;28;20118;-74
2022/01/08 12:16:36;;;;;;;10.45;3.75;;;5.70;99.90;;;;;;5013992;28;20030;-74
2022/01/08 12:19:25;;;;;;;11.15;4.30;;;5.60;99.90;;;;;;5030128;28;20036;-74
2022/01/08 12:21:51;;;;;;;11.60;4.32;;;5.50;99.90;;;;;;5014288;28;20041;-73
2022/01/08 12:24:26;;;;;;;8.55;3.70;;;5.50;99.90;;;;;;5020283;28;20022;-73
2022/01/08 12:26:57;;;;;;;10.30;3.67;;;5.40;99.90;;;;;;5013969;28;20034;-73
2022/01/08 12:29:36;;;;;;;11.70;4.07;;;5.30;99.90;;;;;;5027529;28;20022;-71
2022/01/08 12:35:20;;;;;;;6.63;3.05;;;5.20;99.90;;;;;;5015914;28;20077;-71
2022/01/08 12:37:48;;;;;;;13.15;4.70;;;5.10;99.90;;;;;;5021165;28;20100;-74
2022/01/08 12:40:34;;;;;;;11.07;4.28;;;5.10;99.90;;;;;;5022118;28;20076;-73
2022/01/08 12:42:59;;;;;;;10.70;4.60;;;5.00;99.90;;;;;;5029732;28;20022;-73
2022/01/08 12:45:34;;;;;;;9.98;3.85;;;4.90;99.90;;;;;;5013409;28;20125;-73
2022/01/08 12:48:00;;;;;;;8.80;4.07;;;4.90;99.90;;;;;;5022467;28;20474;-73
2022/01/08 12:50:51;;;;;;;15.18;4.82;;;4.90;99.90;;;;;;5020797;28;20455;-73
2022/01/08 12:53:25;;;;;;;11.02;4.05;;;4.90;99.90;;;;;;5021102;28;20121;-74
2022/01/08 12:55:54;;;;;;;14.50;5.18;;;4.80;99.90;;;;;;5012800;28;20033;-73
2022/01/08 12:58:44;;;;;;;9.40;4.28;;;4.80;99.90;;;;;;5022922;28;20030;-72
2022/01/08 13:01:16;;;;;;;9.32;4.25;;;4.80;99.90;;;;;;5028322;28;20088;-72
2022/01/08 13:03:47;;;;;;;8.35;4.07;;;4.80;99.90;;;;;;5019957;28;20034;-73
2022/01/08 13:06:13;;;;;;;14.00;4.22;;;4.80;99.90;;;;;;5013124;28;20118;-73
2022/01/08 13:08:43;;;;;;;8.15;3.85;;;4.70;99.90;;;;;;5013293;28;20383;-73
2022/01/08 13:11:20;;;;;;;10.90;4.90;;;4.70;99.90;;;;;;5013059;28;20033;-73
2022/01/08 13:13:53;;;;;;;6.20;3.15;;;4.70;99.90;;;;;;5012812;28;20128;-73
2022/01/08 13:16:39;;;;;;;8.38;4.22;;;4.70;99.90;;;;;;5013378;28;20084;-73
2022/01/08 13:19:07;;;;;;;9.27;4.57;;;4.70;99.90;;;;;;5021463;28;20113;-73